createdAt,value
2019-04-23T00:00:45.485Z,1010.10
2019-04-23T00:01:49.233Z,1010.02
2019-04-23T00:02:53.681Z,1010.02
2019-04-23T00:03:47.192Z,1010.00
2019-04-23T00:04:42.644Z,1010.02
2019-04-23T00:05:47.797Z,1010.05
2019-04-23T00:06:59.243Z,1010.02
2019-04-23T00:07:50.835Z,1009.96
2019-04-23T00:08:50.220Z,1009.98
2019-04-23T00:09:51.483Z,1009.99
2019-04-23T00:10:43.121Z,1009.94
2019-04-23T00:11:45.866Z,1010.00
2019-04-23T00:15:00.662Z,1009.94
2019-04-23T00:15:53.211Z,1009.95
2019-04-23T00:16:44.795Z,1009.93
2019-04-23T00:19:53.680Z,1009.92
2019-04-23T00:20:47.889Z,1009.92
2019-04-23T00:21:48.265Z,1009.87
2019-04-23T00:22:53.304Z,1009.93
2019-04-23T00:23:52.997Z,1009.97
2019-04-23T00:25:19.109Z,1009.90
2019-04-23T00:25:54.044Z,1009.89
2019-04-23T00:26:47.604Z,1009.90
2019-04-23T00:28:50.758Z,1009.84
2019-04-23T00:29:53.137Z,1009.86
2019-04-23T00:30:48.286Z,1009.86
2019-04-23T00:31:47.662Z,1009.84
2019-04-23T00:32:48.121Z,1009.82
2019-04-23T00:33:43.137Z,1009.84
2019-04-23T00:34:49.698Z,1009.81
2019-04-23T00:35:44.079Z,1009.81
2019-04-23T00:36:44.563Z,1009.81
2019-04-23T00:37:45.790Z,1009.78
2019-04-23T00:38:45.453Z,1009.87
2019-04-23T00:39:49.977Z,1009.82
2019-04-23T00:40:46.773Z,1009.79
2019-04-23T00:41:44.191Z,1009.76
2019-04-23T00:43:48.760Z,1009.80
2019-04-23T00:44:49.816Z,1009.74
2019-04-23T00:45:44.578Z,1009.75
2019-04-23T00:46:48.984Z,1009.72
2019-04-23T00:47:48.635Z,1009.73
2019-04-23T00:48:52.181Z,1009.71
2019-04-23T00:49:51.727Z,1009.76
2019-04-23T00:50:52.958Z,1009.76
2019-04-23T00:51:56.995Z,1009.72
2019-04-23T00:52:46.130Z,1009.67
2019-04-23T00:53:44.196Z,1009.67
2019-04-23T00:54:50.492Z,1009.68
2019-04-23T00:55:47.715Z,1009.65
2019-04-23T00:56:44.695Z,1009.68
2019-04-23T00:57:43.066Z,1009.61
2019-04-23T00:59:57.726Z,1009.67
2019-04-23T01:00:46.007Z,1009.60
2019-04-23T01:01:52.860Z,1009.60
2019-04-23T01:02:45.761Z,1009.66
2019-04-23T01:03:39.447Z,1009.60
2019-04-23T01:04:47.683Z,1009.61
2019-04-23T01:05:42.220Z,1009.63
2019-04-23T01:06:47.631Z,1009.68
2019-04-23T01:07:47.581Z,1009.64
2019-04-23T01:08:44.143Z,1009.61
2019-04-23T01:09:45.845Z,1009.55
2019-04-23T01:10:43.077Z,1009.56
2019-04-23T01:11:43.490Z,1009.56
2019-04-23T01:12:51.687Z,1009.59
2019-04-23T01:14:48.670Z,1009.60
2019-04-23T01:15:46.784Z,1009.61
2019-04-23T01:17:02.783Z,1009.56
2019-04-23T01:17:57.722Z,1009.55
2019-04-23T01:19:48.435Z,1009.53
2019-04-23T01:21:24.371Z,1009.55
2019-04-23T01:22:23.202Z,1009.54
2019-04-23T01:23:28.565Z,1009.52
2019-04-23T01:24:28.724Z,1009.50
2019-04-23T01:25:33.967Z,1009.51
2019-04-23T01:26:42.094Z,1009.47
2019-04-23T01:28:53.834Z,1009.39
2019-04-23T01:29:54.534Z,1009.44
2019-04-23T01:32:51.820Z,1009.46
2019-04-23T01:34:11.113Z,1009.36
2019-04-23T01:34:59.496Z,1009.38
2019-04-23T01:36:03.170Z,1009.36
2019-04-23T01:36:48.635Z,1009.37
2019-04-23T01:37:46.693Z,1009.30
2019-04-23T01:39:06.424Z,1009.33
2019-04-23T01:39:53.194Z,1009.40
2019-04-23T01:40:45.872Z,1009.31
2019-04-23T01:43:46.095Z,1009.29
2019-04-23T01:44:52.986Z,1009.27
2019-04-23T01:45:44.383Z,1009.21
2019-04-23T01:46:49.500Z,1009.25
2019-04-23T01:47:49.604Z,1009.18
2019-04-23T01:48:51.986Z,1009.18
2019-04-23T01:49:58.209Z,1009.16
2019-04-23T01:51:55.712Z,1009.13
2019-04-23T01:53:13.141Z,1009.15
2019-04-23T01:54:02.936Z,1009.14
2019-04-23T01:54:52.000Z,1009.15
2019-04-23T01:55:51.086Z,1009.06
2019-04-23T01:56:50.912Z,1009.09
2019-04-23T01:57:56.047Z,1009.04
2019-04-23T01:58:53.916Z,1009.10
2019-04-23T01:59:57.483Z,1009.08
2019-04-23T02:00:47.734Z,1009.04
2019-04-23T02:01:50.291Z,1009.11
2019-04-23T02:02:55.459Z,1009.05
2019-04-23T02:04:54.214Z,1009.02
2019-04-23T02:05:49.083Z,1009.02
2019-04-23T02:06:55.899Z,1008.98
2019-04-23T02:07:58.365Z,1009.00
2019-04-23T02:08:56.906Z,1008.98
2019-04-23T02:10:01.060Z,1009.02
2019-04-23T02:10:56.317Z,1008.93
2019-04-23T02:11:53.638Z,1009.03
2019-04-23T02:12:57.007Z,1008.95
2019-04-23T02:13:49.111Z,1008.95
2019-04-23T02:14:50.142Z,1009.00
2019-04-23T02:15:47.411Z,1009.01
2019-04-23T02:16:53.220Z,1009.03
2019-04-23T02:17:52.047Z,1008.94
2019-04-23T02:18:50.749Z,1008.98
2019-04-23T02:19:53.197Z,1008.88
2019-04-23T02:20:50.919Z,1008.91
2019-04-23T02:21:55.015Z,1008.91
2019-04-23T02:23:01.389Z,1009.02
2019-04-23T02:23:50.778Z,1008.88
2019-04-23T02:24:54.530Z,1008.86
2019-04-23T02:27:05.960Z,1008.88
2019-04-23T02:27:56.241Z,1008.95
2019-04-23T02:28:53.458Z,1008.87
2019-04-23T02:33:19.391Z,1008.89
2019-04-23T02:36:57.642Z,1008.85
2019-04-23T02:38:00.617Z,1008.86
2019-04-23T02:39:57.571Z,1008.86
2019-04-23T02:41:12.503Z,1008.81
2019-04-23T02:43:59.619Z,1008.86
2019-04-23T02:44:55.879Z,1008.85
2019-04-23T02:46:59.874Z,1008.80
2019-04-23T02:48:08.576Z,1008.85
2019-04-23T02:49:09.785Z,1008.81
2019-04-23T02:52:57.011Z,1008.84
2019-04-23T02:54:04.084Z,1008.80
2019-04-23T02:57:05.775Z,1008.81
2019-04-23T02:58:16.036Z,1008.82
2019-04-23T03:02:05.808Z,1008.72
2019-04-23T03:04:02.378Z,1008.71
2019-04-23T03:05:57.365Z,1008.69
2019-04-23T03:07:57.692Z,1008.64
2019-04-23T03:12:02.630Z,1008.64
2019-04-23T03:12:58.747Z,1008.60
2019-04-23T03:14:59.003Z,1008.57
2019-04-23T03:16:12.083Z,1008.54
2019-04-23T03:18:04.722Z,1008.55
2019-04-23T03:19:59.079Z,1008.53
2019-04-23T03:21:11.660Z,1008.53
2019-04-23T03:21:56.187Z,1008.59
2019-04-23T03:23:03.214Z,1008.54
2019-04-23T03:24:04.980Z,1008.57
2019-04-23T03:25:10.030Z,1008.61
2019-04-23T03:26:01.976Z,1008.53
2019-04-23T03:27:11.038Z,1008.55
2019-04-23T03:27:50.014Z,1008.58
2019-04-23T03:35:00.195Z,1008.46
2019-04-23T03:37:56.293Z,1008.46
2019-04-23T03:38:55.948Z,1008.46
2019-04-23T03:41:15.361Z,1008.44
2019-04-23T03:41:53.923Z,1008.44
2019-04-23T03:43:01.339Z,1008.41
2019-04-23T03:43:46.516Z,1008.40
2019-04-23T03:45:10.084Z,1008.42
2019-04-23T03:46:12.360Z,1008.40
2019-04-23T03:46:51.431Z,1008.44
2019-04-23T03:47:56.216Z,1008.43
2019-04-23T03:50:44.734Z,1008.46
2019-04-23T03:52:54.799Z,1008.52
2019-04-23T03:54:03.667Z,1008.45
2019-04-23T03:56:12.462Z,1008.48
2019-04-23T03:57:03.325Z,1008.38
2019-04-23T03:57:52.334Z,1008.41
2019-04-23T03:59:11.432Z,1008.42
2019-04-23T04:00:22.873Z,1008.36
2019-04-23T04:00:58.743Z,1008.40
2019-04-23T04:02:04.403Z,1008.33
2019-04-23T04:04:49.785Z,1008.38
2019-04-23T04:05:57.916Z,1008.41
2019-04-23T04:08:15.975Z,1008.36
2019-04-23T04:11:02.487Z,1008.34
2019-04-23T04:11:54.989Z,1008.38
2019-04-23T04:12:45.681Z,1008.38
2019-04-23T04:14:04.814Z,1008.44
2019-04-23T04:14:59.165Z,1008.41
2019-04-23T04:18:57.339Z,1008.41
2019-04-23T04:20:02.794Z,1008.45
2019-04-23T04:21:01.202Z,1008.38
2019-04-23T04:22:00.250Z,1008.39
2019-04-23T04:24:07.528Z,1008.40
2019-04-23T04:24:52.049Z,1008.38
2019-04-23T04:26:59.461Z,1008.36
2019-04-23T04:28:05.189Z,1008.31
2019-04-23T04:29:01.278Z,1008.38
2019-04-23T04:30:00.955Z,1008.37
2019-04-23T04:30:48.349Z,1008.35
2019-04-23T04:31:58.671Z,1008.36
2019-04-23T04:33:19.579Z,1008.44
2019-04-23T04:34:29.099Z,1008.39
2019-04-23T04:35:14.717Z,1008.36
2019-04-23T04:35:58.998Z,1008.39
2019-04-23T04:37:22.347Z,1008.44
2019-04-23T04:39:02.931Z,1008.45
2019-04-23T04:41:09.777Z,1008.40
2019-04-23T04:44:05.458Z,1008.42
2019-04-23T04:46:10.005Z,1008.44
2019-04-23T04:46:50.513Z,1008.38
2019-04-23T04:47:49.505Z,1008.39
2019-04-23T04:48:56.539Z,1008.38
2019-04-23T04:51:00.444Z,1008.36
2019-04-23T04:52:58.273Z,1008.33
2019-04-23T04:54:04.130Z,1008.32
2019-04-23T04:54:53.955Z,1008.35
2019-04-23T04:56:01.376Z,1008.31
2019-04-23T04:58:02.921Z,1008.33
2019-04-23T04:58:52.900Z,1008.30
2019-04-23T05:01:04.236Z,1008.33
2019-04-23T05:02:00.473Z,1008.27
2019-04-23T05:03:45.864Z,1008.30
2019-04-23T05:06:11.491Z,1008.32
2019-04-23T05:07:02.186Z,1008.26
2019-04-23T05:07:54.863Z,1008.29
2019-04-23T05:08:54.518Z,1008.31
2019-04-23T05:12:59.883Z,1008.31
2019-04-23T05:13:49.823Z,1008.29
2019-04-23T05:14:58.743Z,1008.24
2019-04-23T05:15:56.343Z,1008.17
2019-04-23T05:16:50.670Z,1008.32
2019-04-23T05:18:01.586Z,1008.18
2019-04-23T05:18:52.219Z,1008.18
2019-04-23T05:19:53.375Z,1008.25
2019-04-23T05:20:53.461Z,1008.12
2019-04-23T05:21:54.574Z,1008.16
2019-04-23T05:23:00.475Z,1008.18
2019-04-23T05:24:45.233Z,1008.15
2019-04-23T05:25:57.973Z,1008.13
2019-04-23T05:26:43.006Z,1008.14
2019-04-23T05:27:53.527Z,1008.13
2019-04-23T05:29:56.057Z,1008.14
2019-04-23T05:30:57.042Z,1008.05
2019-04-23T05:31:37.713Z,1008.02
2019-04-23T05:32:50.407Z,1008.07
2019-04-23T05:33:52.318Z,1008.05
2019-04-23T05:34:46.675Z,1008.02
2019-04-23T05:36:09.170Z,1008.01
2019-04-23T05:36:45.726Z,1008.05
2019-04-23T05:38:02.550Z,1008.06
2019-04-23T05:39:11.150Z,1008.00
2019-04-23T05:39:50.119Z,1008.08
2019-04-23T05:41:45.255Z,1008.09
2019-04-23T05:42:49.955Z,1008.02
2019-04-23T05:43:51.065Z,1007.99
2019-04-23T05:44:51.017Z,1008.07
2019-04-23T05:45:48.381Z,1007.93
2019-04-23T05:46:48.645Z,1008.05
2019-04-23T05:47:56.841Z,1007.97
2019-04-23T05:48:52.295Z,1007.97
2019-04-23T05:51:57.422Z,1007.97
2019-04-23T05:53:10.159Z,1008.09
2019-04-23T05:53:45.061Z,1008.04
2019-04-23T05:54:56.334Z,1007.97
2019-04-23T05:55:47.636Z,1007.94
2019-04-23T05:56:46.762Z,1007.98
2019-04-23T05:57:45.701Z,1007.87
2019-04-23T05:58:53.150Z,1007.98
2019-04-23T05:59:46.874Z,1007.98
2019-04-23T06:00:54.507Z,1007.83
2019-04-23T06:01:55.703Z,1007.88
2019-04-23T06:02:57.189Z,1007.88
2019-04-23T06:03:52.326Z,1007.90
2019-04-23T06:05:04.097Z,1007.84
2019-04-23T06:06:55.792Z,1007.85
2019-04-23T06:07:49.785Z,1007.88
2019-04-23T06:08:46.711Z,1007.89
2019-04-23T06:09:50.439Z,1007.86
2019-04-23T06:10:48.145Z,1007.82
2019-04-23T06:12:44.760Z,1007.79
2019-04-23T06:13:56.123Z,1007.70
2019-04-23T06:15:46.754Z,1007.79
2019-04-23T06:17:03.222Z,1007.71
2019-04-23T06:17:52.606Z,1007.65
2019-04-23T06:19:55.090Z,1007.70
2019-04-23T06:20:59.013Z,1007.64
2019-04-23T06:22:51.178Z,1007.67
2019-04-23T06:24:45.153Z,1007.74
2019-04-23T06:25:59.673Z,1007.68
2019-04-23T06:27:51.606Z,1007.74
2019-04-23T06:28:50.096Z,1007.76
2019-04-23T06:29:44.665Z,1007.69
2019-04-23T06:31:52.605Z,1007.67
2019-04-23T06:32:42.976Z,1007.72
2019-04-23T06:33:46.874Z,1007.78
2019-04-23T06:35:01.503Z,1007.71
2019-04-23T06:35:53.375Z,1007.66
2019-04-23T06:36:46.666Z,1007.74
2019-04-23T06:39:48.322Z,1007.69
2019-04-23T06:40:50.323Z,1007.68
2019-04-23T06:41:49.908Z,1007.63
2019-04-23T06:42:42.988Z,1007.73
2019-04-23T06:43:49.995Z,1007.70
2019-04-23T06:44:45.749Z,1007.64
2019-04-23T06:45:42.867Z,1007.68
2019-04-23T06:46:50.681Z,1007.73
2019-04-23T06:47:45.196Z,1007.64
2019-04-23T06:48:47.262Z,1007.67
2019-04-23T06:50:52.667Z,1007.70
2019-04-23T06:51:51.883Z,1007.61
2019-04-23T06:52:39.395Z,1007.62
2019-04-23T06:53:43.091Z,1007.60
2019-04-23T06:54:49.095Z,1007.62
2019-04-23T06:55:50.926Z,1007.65
2019-04-23T06:56:54.354Z,1007.60
2019-04-23T06:57:52.083Z,1007.51
2019-04-23T06:58:43.302Z,1007.58
2019-04-23T07:00:02.422Z,1007.54
2019-04-23T07:00:51.321Z,1007.47
2019-04-23T07:01:56.211Z,1007.51
2019-04-23T07:02:47.306Z,1007.50
2019-04-23T07:03:55.748Z,1007.48
2019-04-23T07:05:06.657Z,1007.53
2019-04-23T07:05:55.084Z,1007.53
2019-04-23T07:06:58.190Z,1007.49
2019-04-23T07:09:05.272Z,1007.42
2019-04-23T07:09:45.564Z,1007.47
2019-04-23T07:10:49.074Z,1007.44
2019-04-23T07:11:43.017Z,1007.41
2019-04-23T07:12:50.465Z,1007.46
2019-04-23T07:13:54.653Z,1007.40
2019-04-23T07:15:58.497Z,1007.40
2019-04-23T07:16:46.884Z,1007.36
2019-04-23T07:17:41.029Z,1007.42
2019-04-23T07:18:51.359Z,1007.47
2019-04-23T07:20:50.578Z,1007.32
2019-04-23T07:21:42.104Z,1007.37
2019-04-23T07:22:50.622Z,1007.40
2019-04-23T07:23:54.529Z,1007.26
2019-04-23T07:24:50.870Z,1007.33
2019-04-23T07:25:48.462Z,1007.29
2019-04-23T07:26:52.812Z,1007.24
2019-04-23T07:27:43.091Z,1007.27
2019-04-23T07:28:56.248Z,1007.23
2019-04-23T07:30:55.899Z,1007.27
2019-04-23T07:31:51.505Z,1007.26
2019-04-23T07:33:50.680Z,1007.30
2019-04-23T07:34:49.518Z,1007.33
2019-04-23T07:35:45.571Z,1007.28
2019-04-23T07:36:47.355Z,1007.30
2019-04-23T07:37:54.805Z,1007.26
2019-04-23T07:38:59.621Z,1007.29
2019-04-23T07:39:57.075Z,1007.19
2019-04-23T07:40:55.309Z,1007.24
2019-04-23T07:43:00.091Z,1007.21
2019-04-23T07:43:50.753Z,1007.20
2019-04-23T07:44:54.521Z,1007.20
2019-04-23T07:45:53.083Z,1007.20
2019-04-23T07:46:53.342Z,1007.16
2019-04-23T07:47:55.914Z,1007.23
2019-04-23T07:48:41.932Z,1007.22
2019-04-23T07:49:50.503Z,1007.18
2019-04-23T07:52:51.328Z,1007.12
2019-04-23T07:54:52.563Z,1006.99
2019-04-23T07:55:49.642Z,1007.13
2019-04-23T07:56:54.278Z,1007.04
2019-04-23T07:57:54.990Z,1007.12
2019-04-23T07:58:39.346Z,1007.05
2019-04-23T07:59:48.689Z,1007.01
2019-04-23T08:01:01.343Z,1007.07
2019-04-23T08:01:49.568Z,1007.02
2019-04-23T08:02:43.437Z,1007.01
2019-04-23T08:03:48.243Z,1006.98
2019-04-23T08:05:06.333Z,1007.00
2019-04-23T08:05:43.694Z,1006.89
2019-04-23T08:06:49.072Z,1007.00
2019-04-23T08:07:49.580Z,1006.98
2019-04-23T08:09:48.008Z,1006.96
2019-04-23T08:11:10.988Z,1006.92
2019-04-23T08:12:02.979Z,1006.91
2019-04-23T08:12:46.945Z,1006.95
2019-04-23T08:14:53.478Z,1006.83
2019-04-23T08:15:46.561Z,1006.81
2019-04-23T08:16:57.892Z,1006.88
2019-04-23T08:17:45.091Z,1006.80
2019-04-23T08:20:49.371Z,1006.74
2019-04-23T08:21:46.348Z,1006.80
2019-04-23T08:22:48.019Z,1006.73
2019-04-23T08:23:49.600Z,1006.74
2019-04-23T08:24:55.484Z,1006.71
2019-04-23T08:25:56.283Z,1006.81
2019-04-23T08:26:50.304Z,1006.68
2019-04-23T08:27:43.657Z,1006.74
2019-04-23T08:29:06.203Z,1006.67
2019-04-23T08:29:41.394Z,1006.58
2019-04-23T08:30:49.920Z,1006.58
2019-04-23T08:31:52.745Z,1006.65
2019-04-23T08:32:47.315Z,1006.73
2019-04-23T08:33:49.779Z,1006.66
2019-04-23T08:35:51.406Z,1006.62
2019-04-23T08:36:50.104Z,1006.58
2019-04-23T08:38:04.590Z,1006.50
2019-04-23T08:38:44.668Z,1006.58
2019-04-23T08:39:43.427Z,1006.49
2019-04-23T08:40:55.749Z,1006.53
2019-04-23T08:41:59.524Z,1006.53
2019-04-23T08:45:01.291Z,1006.49
2019-04-23T08:45:48.469Z,1006.50
2019-04-23T08:46:56.843Z,1006.41
2019-04-23T08:47:53.764Z,1006.37
2019-04-23T08:48:55.990Z,1006.37
2019-04-23T08:50:44.129Z,1006.42
2019-04-23T08:51:52.214Z,1006.40
2019-04-23T08:52:43.085Z,1006.34
2019-04-23T08:54:52.013Z,1006.34
2019-04-23T08:55:51.628Z,1006.37
2019-04-23T08:56:48.763Z,1006.35
2019-04-23T08:57:43.081Z,1006.30
2019-04-23T08:58:46.346Z,1006.28
2019-04-23T09:01:58.008Z,1006.27
2019-04-23T09:03:39.449Z,1006.24
2019-04-23T09:04:55.435Z,1006.24
2019-04-23T09:06:47.188Z,1006.14
2019-04-23T09:07:56.930Z,1006.21
2019-04-23T09:08:43.763Z,1006.29
2019-04-23T09:09:51.679Z,1006.19
2019-04-23T09:10:51.742Z,1006.10
2019-04-23T09:13:26.328Z,1006.04
2019-04-23T09:13:53.439Z,1006.17
2019-04-23T09:14:44.971Z,1005.99
2019-04-23T09:17:47.594Z,1006.07
2019-04-23T09:18:48.858Z,1006.13
2019-04-23T09:20:05.317Z,1006.01
2019-04-23T09:20:38.707Z,1006.02
2019-04-23T09:21:53.284Z,1005.96
2019-04-23T09:22:46.903Z,1005.91
2019-04-23T09:23:46.662Z,1006.00
2019-04-23T09:25:08.424Z,1006.01
2019-04-23T09:26:51.655Z,1005.98
2019-04-23T09:27:45.309Z,1005.88
2019-04-23T09:28:51.740Z,1005.81
2019-04-23T09:29:51.569Z,1005.92
2019-04-23T09:30:49.677Z,1005.86
2019-04-23T09:32:07.370Z,1005.93
2019-04-23T09:32:51.630Z,1005.94
2019-04-23T09:34:52.981Z,1005.86
2019-04-23T09:35:44.611Z,1005.77
2019-04-23T09:36:51.682Z,1005.76
2019-04-23T09:37:47.191Z,1005.77
2019-04-23T09:38:44.912Z,1005.78
2019-04-23T09:39:55.154Z,1005.61
2019-04-23T09:41:03.045Z,1005.77
2019-04-23T09:41:38.208Z,1005.59
2019-04-23T09:42:54.333Z,1005.72
2019-04-23T09:43:48.520Z,1005.60
2019-04-23T09:45:48.449Z,1005.60
2019-04-23T09:46:45.137Z,1005.64
2019-04-23T09:47:51.867Z,1005.52
2019-04-23T09:48:51.403Z,1005.62
2019-04-23T09:49:50.160Z,1005.55
2019-04-23T09:50:52.442Z,1005.57
2019-04-23T09:51:49.342Z,1005.74
2019-04-23T09:53:01.867Z,1005.66
2019-04-23T09:53:48.751Z,1005.59
2019-04-23T09:54:56.118Z,1005.48
2019-04-23T09:55:53.604Z,1005.50
2019-04-23T09:57:52.247Z,1005.39
2019-04-23T09:58:45.085Z,1005.42
2019-04-23T09:59:49.842Z,1005.49
2019-04-23T10:00:46.943Z,1005.43
2019-04-23T10:01:50.126Z,1005.35
2019-04-23T10:02:35.391Z,1005.42
2019-04-23T10:03:33.407Z,1005.32
2019-04-23T10:04:31.986Z,1005.36
2019-04-23T10:05:31.119Z,1005.31
2019-04-23T10:06:24.456Z,1005.30
2019-04-23T10:07:30.019Z,1005.28
2019-04-23T10:08:26.817Z,1005.25
2019-04-23T10:09:18.840Z,1005.23
2019-04-23T10:10:18.553Z,1005.27
2019-04-23T10:11:18.176Z,1005.22
2019-04-23T10:12:17.723Z,1005.29
2019-04-23T10:13:17.961Z,1005.19
2019-04-23T10:14:18.338Z,1005.26
2019-04-23T10:15:24.322Z,1005.19
2019-04-23T10:16:21.381Z,1005.39
2019-04-23T10:17:18.177Z,1005.30
2019-04-23T10:18:18.295Z,1005.18
2019-04-23T10:19:17.204Z,1005.19
2019-04-23T10:20:18.244Z,1005.18
2019-04-23T10:21:17.462Z,1005.17
2019-04-23T10:22:17.398Z,1005.12
2019-04-23T10:23:16.998Z,1005.06
2019-04-23T10:24:17.085Z,1005.02
2019-04-23T10:25:17.244Z,1005.06
2019-04-23T10:26:16.979Z,1005.09
2019-04-23T10:27:17.125Z,1005.07
2019-04-23T10:28:18.704Z,1005.03
2019-04-23T10:29:18.166Z,1005.18
2019-04-23T10:30:17.729Z,1005.00
2019-04-23T10:31:16.937Z,1004.96
2019-04-23T10:32:17.704Z,1005.02
2019-04-23T10:33:16.895Z,1004.89
2019-04-23T10:34:17.083Z,1004.98
2019-04-23T10:35:28.496Z,1004.99
2019-04-23T10:36:21.487Z,1004.94
2019-04-23T10:37:31.422Z,1004.94
2019-04-23T10:38:20.264Z,1004.82
2019-04-23T10:39:23.323Z,1004.82
2019-04-23T10:40:23.909Z,1004.81
2019-04-23T10:41:20.202Z,1004.79
2019-04-23T10:42:18.158Z,1004.76
2019-04-23T10:43:17.202Z,1004.74
2019-04-23T10:44:17.308Z,1004.78
2019-04-23T10:45:30.224Z,1004.69
2019-04-23T10:46:36.505Z,1004.58
2019-04-23T10:47:44.779Z,1004.66
2019-04-23T10:49:11.440Z,1004.59
2019-04-23T10:50:46.500Z,1004.59
2019-04-23T10:51:51.645Z,1004.66
2019-04-23T10:52:53.763Z,1004.66
2019-04-23T10:54:02.791Z,1004.77
2019-04-23T10:54:45.368Z,1004.66
2019-04-23T10:56:46.298Z,1004.54
2019-04-23T10:57:39.430Z,1004.74
2019-04-23T10:58:38.557Z,1004.57
2019-04-23T11:00:44.990Z,1004.63
2019-04-23T11:01:57.194Z,1004.61
2019-04-23T11:02:47.568Z,1004.63
2019-04-23T11:04:02.803Z,1004.58
2019-04-23T11:04:54.348Z,1004.58
2019-04-23T11:05:53.932Z,1004.69
2019-04-23T11:06:45.226Z,1004.58
2019-04-23T11:07:53.722Z,1004.53
2019-04-23T11:08:45.540Z,1004.64
2019-04-23T11:10:48.432Z,1004.53
2019-04-23T11:11:47.030Z,1004.50
2019-04-23T11:12:49.057Z,1004.51
2019-04-23T11:13:50.285Z,1004.43
2019-04-23T11:14:53.113Z,1004.49
2019-04-23T11:16:01.478Z,1004.54
2019-04-23T11:17:51.945Z,1004.50
2019-04-23T11:18:56.705Z,1004.46
2019-04-23T11:20:01.402Z,1004.44
2019-04-23T11:22:46.481Z,1004.47
2019-04-23T11:25:45.123Z,1004.40
2019-04-23T11:28:44.941Z,1004.43
2019-04-23T11:29:50.559Z,1004.44
2019-04-23T11:30:40.880Z,1004.48
2019-04-23T11:31:52.341Z,1004.48
2019-04-23T11:32:57.309Z,1004.49
2019-04-23T11:33:57.452Z,1004.49
2019-04-23T11:35:04.830Z,1004.47
2019-04-23T11:40:36.994Z,1004.48
2019-04-23T11:41:51.692Z,1004.35
2019-04-23T11:42:49.465Z,1004.38
2019-04-23T11:43:50.738Z,1004.41
2019-04-23T11:44:49.544Z,1004.31
2019-04-23T11:45:59.209Z,1004.29
2019-04-23T11:46:53.885Z,1004.29
2019-04-23T11:48:13.960Z,1004.33
2019-04-23T11:49:53.318Z,1004.35
2019-04-23T11:52:48.654Z,1004.23
2019-04-23T11:53:51.017Z,1004.21
2019-04-23T11:54:43.143Z,1004.22
2019-04-23T11:56:02.645Z,1004.23
2019-04-23T11:59:59.034Z,1004.11
2019-04-23T12:00:51.298Z,1004.07
2019-04-23T12:01:52.687Z,1004.25
2019-04-23T12:03:57.122Z,1004.08
2019-04-23T12:04:57.542Z,1004.07
2019-04-23T12:06:07.810Z,1004.14
2019-04-23T12:06:51.088Z,1004.10
2019-04-23T12:07:41.282Z,1004.25
2019-04-23T12:08:44.417Z,1004.17
2019-04-23T12:09:46.476Z,1004.05
2019-04-23T12:12:39.599Z,1004.21
2019-04-23T12:15:49.943Z,1004.26
2019-04-23T12:17:05.551Z,1004.26
2019-04-23T12:18:03.258Z,1004.05
2019-04-23T12:18:57.972Z,1004.40
2019-04-23T12:19:57.585Z,1004.17
2019-04-23T12:21:01.652Z,1004.01
2019-04-23T12:21:53.135Z,1004.32
2019-04-23T12:22:46.763Z,1004.08
2019-04-23T12:23:56.636Z,1004.20
2019-04-23T12:25:48.438Z,1004.21
2019-04-23T12:26:53.881Z,1004.26
2019-04-23T12:27:39.049Z,1004.23
2019-04-23T12:28:44.130Z,1004.19
2019-04-23T12:29:46.239Z,1004.08
2019-04-23T12:30:45.168Z,1004.09
2019-04-23T12:31:47.995Z,1004.15
2019-04-23T12:33:50.198Z,1004.29
2019-04-23T12:34:52.950Z,1004.11
2019-04-23T12:35:39.047Z,1004.19
2019-04-23T12:38:38.815Z,1004.07
2019-04-23T12:39:49.787Z,1004.26
2019-04-23T12:40:56.111Z,1004.16
2019-04-23T12:41:51.198Z,1004.10
2019-04-23T12:42:59.025Z,1004.16
2019-04-23T12:43:40.058Z,1004.09
2019-04-23T12:44:53.427Z,1004.16
2019-04-23T12:45:52.017Z,1004.27
2019-04-23T12:46:50.479Z,1004.24
2019-04-23T12:48:49.372Z,1004.38
2019-04-23T12:50:51.626Z,1004.07
2019-04-23T12:51:50.262Z,1004.21
2019-04-23T12:52:47.650Z,1004.08
2019-04-23T12:53:57.671Z,1004.19
2019-04-23T12:57:00.697Z,1004.17
2019-04-23T12:57:46.717Z,1004.14
2019-04-23T12:58:31.074Z,1003.98
2019-04-23T12:59:44.306Z,1004.04
2019-04-23T13:00:54.505Z,1003.99
2019-04-23T13:01:51.109Z,1004.02
2019-04-23T13:02:44.280Z,1003.94
2019-04-23T13:03:41.283Z,1003.89
2019-04-23T13:04:48.673Z,1003.95
2019-04-23T13:05:49.151Z,1003.94
2019-04-23T13:06:44.083Z,1004.00
2019-04-23T13:07:43.665Z,1003.95
2019-04-23T13:08:46.618Z,1003.98
2019-04-23T13:09:52.481Z,1003.98
2019-04-23T13:11:45.078Z,1003.88
2019-04-23T13:13:45.903Z,1003.83
2019-04-23T13:14:53.124Z,1003.83
2019-04-23T13:15:40.707Z,1003.91
2019-04-23T13:16:55.265Z,1003.90
2019-04-23T13:18:47.031Z,1003.87
2019-04-23T13:19:58.144Z,1003.90
2019-04-23T13:20:38.486Z,1003.73
2019-04-23T13:22:51.131Z,1003.61
2019-04-23T13:23:44.228Z,1003.78
2019-04-23T13:24:48.982Z,1003.68
2019-04-23T13:25:47.379Z,1003.65
2019-04-23T13:26:52.580Z,1003.69
2019-04-23T13:29:51.792Z,1003.62
2019-04-23T13:30:46.660Z,1003.65
2019-04-23T13:31:39.815Z,1003.63
2019-04-23T13:32:48.846Z,1003.63
2019-04-23T13:34:51.121Z,1003.91
2019-04-23T13:35:55.299Z,1003.82
2019-04-23T13:36:45.448Z,1003.65
2019-04-23T13:38:45.139Z,1003.66
2019-04-23T13:39:44.963Z,1003.68
2019-04-23T13:40:46.437Z,1003.70
2019-04-23T13:41:46.256Z,1003.60
2019-04-23T13:42:45.030Z,1003.53
2019-04-23T13:44:47.851Z,1003.40
2019-04-23T13:46:03.753Z,1003.41
2019-04-23T13:46:40.964Z,1003.46
2019-04-23T13:48:36.353Z,1003.60
2019-04-23T13:49:51.050Z,1003.55
2019-04-23T13:51:40.425Z,1003.52
2019-04-23T13:55:42.963Z,1003.41
2019-04-23T13:57:12.727Z,1003.50
2019-04-23T13:58:04.990Z,1003.47
2019-04-23T13:58:50.447Z,1003.58
2019-04-23T13:59:46.896Z,1003.56
2019-04-23T14:01:41.432Z,1003.50
2019-04-23T14:03:54.487Z,1003.34
2019-04-23T14:05:41.622Z,1003.39
2019-04-23T14:06:46.815Z,1003.59
2019-04-23T14:07:48.595Z,1003.44
2019-04-23T14:10:04.485Z,1003.50
2019-04-23T14:10:48.263Z,1003.49
2019-04-23T14:12:01.509Z,1003.55
2019-04-23T14:12:53.395Z,1003.58
2019-04-23T14:13:49.869Z,1003.52
2019-04-23T14:14:49.103Z,1003.53
2019-04-23T14:18:02.925Z,1003.62
2019-04-23T14:19:48.969Z,1003.64
2019-04-23T14:20:45.023Z,1003.64
2019-04-23T14:21:37.011Z,1003.64
2019-04-23T14:24:54.388Z,1003.65
2019-04-23T14:26:01.585Z,1003.62
2019-04-23T14:26:39.618Z,1003.69
2019-04-23T14:27:48.795Z,1003.67
2019-04-23T14:28:44.786Z,1003.60
2019-04-23T14:29:50.308Z,1003.71
2019-04-23T14:31:00.832Z,1003.59
2019-04-23T14:31:44.874Z,1003.61
2019-04-23T14:32:49.915Z,1003.55
2019-04-23T14:33:56.400Z,1003.57
2019-04-23T14:34:55.662Z,1003.66
2019-04-23T14:35:46.737Z,1003.60
2019-04-23T14:36:42.828Z,1003.61
2019-04-23T14:38:02.550Z,1003.68
2019-04-23T14:38:43.814Z,1003.62
2019-04-23T14:39:47.806Z,1003.71
2019-04-23T14:41:44.345Z,1003.64
2019-04-23T14:43:49.413Z,1003.82
2019-04-23T14:44:43.969Z,1003.69
2019-04-23T14:47:48.844Z,1003.64
2019-04-23T14:48:47.958Z,1003.64
2019-04-23T14:50:39.805Z,1003.60
2019-04-23T14:52:00.342Z,1003.67
2019-04-23T14:52:50.509Z,1003.69
2019-04-23T14:53:46.310Z,1003.64
2019-04-23T14:55:25.301Z,1003.60
2019-04-23T14:55:56.929Z,1003.57
2019-04-23T14:56:45.860Z,1003.61
2019-04-23T14:57:52.582Z,1003.63
2019-04-23T14:58:50.796Z,1003.63
2019-04-23T14:59:45.108Z,1003.83
2019-04-23T15:00:59.624Z,1003.71
2019-04-23T15:01:42.515Z,1003.50
2019-04-23T15:03:08.675Z,1003.59
2019-04-23T15:05:56.157Z,1003.62
2019-04-23T15:06:50.962Z,1003.51
2019-04-23T15:07:46.539Z,1003.54
2019-04-23T15:08:49.476Z,1003.62
2019-04-23T15:09:43.029Z,1003.57
2019-04-23T15:10:55.936Z,1003.57
2019-04-23T15:11:58.952Z,1003.54
2019-04-23T15:12:45.584Z,1003.55
2019-04-23T15:13:47.358Z,1003.48
2019-04-23T15:14:57.505Z,1003.52
2019-04-23T15:15:48.834Z,1003.41
2019-04-23T15:17:40.585Z,1003.44
2019-04-23T15:18:52.979Z,1003.43